Time;durP1;ratioP1;P1;durP2;ratioP2;P2;SDS_P1;SDS_P2;PMS_P1;PMS_P2;Temp;Humidity;BMP_temperature;BMP_pressure;BME280_temperature;BME280_humidity;BME280_pressure;Samples;Min_cycle;Max_cycle;Signal;HPM_P1;HPM_P2
2021/12/05 05:02:15;;;;;;;;;0.00;0.00;;;;;7.38;61.71;99906.66;5115922;22;45269;-89
2021/12/05 05:04:49;;;;;;;;;0.00;0.00;;;;;6.85;61.72;99834.81;5014372;28;45675;-88
2021/12/05 05:07:25;;;;;;;;;0.00;0.00;;;;;6.96;61.96;99859.91;4997730;28;47125;-88
2021/12/05 05:10:07;;;;;;;;;0.00;0.00;;;;;7.36;62.22;99908.53;4997979;28;45344;-88
2021/12/05 05:12:33;;;;;;;;;0.00;0.00;;;;;7.01;62.27;99845.59;4998025;28;45667;-89
2021/12/05 05:14:58;;;;;;;;;0.00;0.00;;;;;6.93;61.82;99833.56;4998447;28;45388;-90
2021/12/05 05:17:24;;;;;;;;;0.00;0.00;;;;;6.91;61.81;99813.38;4997870;28;47041;-90
2021/12/05 05:19:56;;;;;;;;;0.00;0.00;;;;;6.95;62.12;99828.19;4997583;28;45465;-90
2021/12/05 05:22:32;;;;;;;;;0.67;0.00;;;;;7.08;61.89;99862.97;4998922;28;45555;-90
2021/12/05 05:41:15;;;;;;;;;0.00;0.00;;;;;6.98;62.00;99826.28;4998131;28;45547;-90
2021/12/05 05:46:13;;;;;;;;;0.00;0.00;;;;;7.33;62.08;99860.94;4998976;28;45388;-89
2021/12/05 05:48:47;;;;;;;;;0.00;0.00;;;;;7.30;62.83;99855.75;4996891;28;48191;-90
2021/12/05 05:51:13;;;;;;;;;1.00;0.00;;;;;7.15;62.77;99841.41;4997166;28;45759;-90
2021/12/05 05:53:38;;;;;;;;;0.00;0.00;;;;;7.71;63.14;99926.44;4997166;28;45387;-90
2021/12/05 05:56:08;;;;;;;;;0.00;0.00;;;;;7.74;62.88;99908.59;4999094;28;45463;-90
2021/12/05 05:58:45;;;;;;;;;0.00;0.00;;;;;7.21;62.56;99824.41;4997170;28;47480;-89
2021/12/05 06:01:20;;;;;;;;;0.00;0.00;;;;;7.69;63.43;99905.28;4997024;28;45356;-90
2021/12/05 06:03:47;;;;;;;;;0.00;0.00;;;;;7.30;62.75;99831.06;5012559;28;45334;-89
2021/12/05 06:06:16;;;;;;;;;0.00;0.00;;;;;7.64;62.89;99883.44;4997358;28;45974;-90
2021/12/05 06:08:43;;;;;;;;;0.00;0.00;;;;;7.76;62.86;99901.44;4997715;28;45519;-90
2021/12/05 06:11:13;;;;;;;;;0.00;0.00;;;;;7.72;62.80;99877.75;4997075;28;45438;-90
2021/12/05 06:13:39;;;;;;;;;0.00;0.00;;;;;7.82;62.63;99892.34;5013092;28;45371;-90
2021/12/05 06:16:07;;;;;;;;;0.33;0.00;;;;;7.41;62.10;99815.53;4998608;28;45572;-90
2021/12/05 06:18:33;;;;;;;;;0.00;0.00;;;;;7.85;62.17;99886.88;4996491;28;48160;-90
2021/12/05 06:20:58;;;;;;;;;0.00;0.00;;;;;7.89;62.33;99903.50;5013413;28;45556;-91
2021/12/05 06:23:25;;;;;;;;;0.00;0.00;;;;;7.40;62.64;99817.31;4998425;28;45526;-90
2021/12/05 06:25:51;;;;;;;;;0.00;0.00;;;;;7.23;61.97;99793.38;4998230;28;45576;-90
2021/12/05 06:28:23;;;;;;;;;0.00;0.00;;;;;8.02;61.56;99899.38;4998109;28;45362;-90
2021/12/05 06:41:37;;;;;;;;;0.00;0.00;;;;;7.79;61.54;99850.88;4997796;28;45385;-89
2021/12/05 06:46:47;;;;;;;;;0.00;0.00;;;;;7.66;61.22;99825.03;4997946;28;45467;-91
2021/12/05 06:49:13;;;;;;;;;0.67;0.00;;;;;7.61;61.04;99825.25;4997616;28;46481;-91
2021/12/05 06:51:39;;;;;;;;;1.67;0.00;;;;;7.78;62.03;99853.63;4997564;28;45365;-90
2021/12/05 06:54:04;;;;;;;;;1.00;1.00;;;;;7.64;62.87;99825.09;4996747;28;45415;-90
2021/12/05 06:56:29;;;;;;;;;0.00;0.00;;;;;8.13;62.93;99917.44;4997027;28;45628;-90
2021/12/05 06:58:55;;;;;;;;;0.00;0.00;;;;;8.01;63.00;99892.34;4997550;28;46332;-90
2021/12/05 07:01:22;;;;;;;;;0.00;0.00;;;;;7.70;63.50;99840.72;4996348;28;45547;-91
2021/12/05 07:03:49;;;;;;;;;0.00;0.00;;;;;7.87;63.45;99865.59;4997251;28;45450;-89
2021/12/05 07:06:24;;;;;;;;;0.00;0.00;;;;;7.74;63.75;99857.34;5013222;28;45563;-90
2021/12/05 07:08:53;;;;;;;;;1.00;0.00;;;;;7.71;64.10;99836.28;4997069;28;45429;-90
2021/12/05 07:11:25;;;;;;;;;0.00;0.00;;;;;8.16;63.89;99919.94;4996129;28;45900;-90
2021/12/05 07:21:33;;;;;;;;;1.67;1.33;;;;;7.94;64.43;99909.50;4997718;28;45388;-90
2021/12/05 07:24:10;;;;;;;;;0.00;0.00;;;;;8.07;64.24;99920.38;4996057;28;45229;-87
2021/12/05 07:40:25;;;;;;;;;1.00;0.00;;;;;7.97;64.75;99909.34;4936568;28;45409;-90
2021/12/05 07:42:54;;;;;;;;;2.67;0.00;;;;;7.97;64.46;99912.00;4936464;28;45475;-89
2021/12/05 07:45:26;;;;;;;;;0.00;0.00;;;;;8.12;64.61;99921.88;4936581;28;45462;-90
2021/12/05 07:47:53;;;;;;;;;1.00;0.00;;;;;7.88;64.16;99877.94;4920303;28;45913;-90
2021/12/05 07:50:28;;;;;;;;;1.67;0.00;;;;;8.12;64.34;99929.84;4936617;28;46214;-89
2021/12/05 07:52:59;;;;;;;;;0.00;0.00;;;;;7.75;64.30;99873.19;4920037;28;45428;-89
2021/12/05 07:55:31;;;;;;;;;1.50;1.00;;;;;7.30;64.41;99802.75;4920674;28;45534;-90
2021/12/05 08:16:35;;;;;;;;;0.00;0.00;;;;;7.99;65.30;99889.75;4965258;28;45407;-90
2021/12/05 08:19:00;;;;;;;;;0.67;0.67;;;;;8.29;65.58;99939.69;4997127;28;45239;-90
2021/12/05 08:21:26;;;;;;;;;0.67;0.67;;;;;8.33;66.02;99933.28;4995401;28;47100;-90
2021/12/05 08:23:52;;;;;;;;;1.00;0.00;;;;;7.68;65.09;99829.31;4996674;28;45363;-89
2021/12/05 08:26:22;;;;;;;;;1.00;1.00;;;;;7.85;65.49;99840.94;5012427;28;45476;-89
2021/12/05 08:34:49;;;;;;;;;0.00;0.00;;;;;8.32;65.24;99917.44;5000162;28;45331;-90
2021/12/05 08:43:05;;;;;;;;;2.00;0.67;;;;;7.93;65.08;99821.03;4939301;28;45582;-90
2021/12/05 08:45:56;;;;;;;;;1.33;1.00;;;;;8.30;64.83;99877.69;4939151;28;45500;-89
2021/12/05 09:26:53;;;;;;;;;1.00;1.00;;;;;9.47;63.53;99962.22;4978960;28;46036;-83
2021/12/05 09:51:00;;;;;;;;;3.00;1.33;;;;;9.46;63.54;99950.75;4978490;28;45497;-83
2021/12/05 10:13:09;;;;;;;;;1.00;1.00;;;;;9.23;63.22;99871.31;4998085;28;45429;-83
2021/12/05 10:37:53;;;;;;;;;2.00;2.00;;;;;9.55;62.78;99860.75;4997777;28;45481;-83
2021/12/05 10:40:30;;;;;;;;;3.00;3.00;;;;;9.60;62.54;99858.69;4997786;28;45404;-83
2021/12/05 10:42:55;;;;;;;;;2.00;1.00;;;;;10.25;62.45;99966.03;4997693;28;46022;-83
2021/12/05 10:45:31;;;;;;;;;3.33;2.00;;;;;9.83;61.96;99900.03;4997096;28;45536;-84
2021/12/05 10:48:00;;;;;;;;;1.67;1.67;;;;;9.85;62.21;99906.97;4997775;28;45373;-85
2021/12/05 10:50:41;;;;;;;;;2.00;2.00;;;;;10.19;62.62;99962.88;4997279;28;45476;-84
2021/12/05 10:53:30;;;;;;;;;2.00;2.00;;;;;9.66;62.44;99869.00;4996289;28;46192;-84
2021/12/05 10:56:10;;;;;;;;;4.00;4.00;;;;;10.31;62.64;99968.41;4997158;28;45572;-84
2021/12/05 10:58:38;;;;;;;;;4.00;2.00;;;;;9.84;62.18;99883.13;4997391;28;45269;-85
2021/12/05 11:01:07;;;;;;;;;1.00;1.00;;;;;10.29;62.00;99970.28;4997819;28;45417;-84
2021/12/05 11:03:33;;;;;;;;;2.00;2.00;;;;;10.28;62.63;99963.25;4996842;28;45410;-84
2021/12/05 11:05:59;;;;;;;;;1.00;1.00;;;;;10.08;62.50;99923.50;4997351;28;45504;-84
2021/12/05 11:08:35;;;;;;;;;3.67;1.33;;;;;10.04;62.35;99921.94;4997154;28;45492;-83
2021/12/05 11:11:06;;;;;;;;;2.00;1.67;;;;;10.26;62.79;99965.09;4997908;28;45176;-84
2021/12/05 11:13:31;;;;;;;;;2.33;2.33;;;;;10.28;63.02;99963.25;4996877;28;46375;-83
2021/12/05 11:15:57;;;;;;;;;4.67;3.67;;;;;10.28;63.11;99965.03;4997054;28;45400;-83
2021/12/05 11:18:43;;;;;;;;;3.00;3.00;;;;;9.90;63.19;99909.38;4997202;28;45404;-83
2021/12/05 11:21:33;;;;;;;;;4.00;2.00;;;;;10.25;62.84;99967.84;4996068;28;45427;-83
2021/12/05 11:24:11;;;;;;;;;11.00;9.67;;;;;9.94;63.18;99919.78;4996496;28;45330;-84
2021/12/05 11:26:40;;;;;;;;;5.33;3.33;;;;;10.25;63.57;99970.50;5011737;28;45470;-83
2021/12/05 11:29:07;;;;;;;;;9.33;6.00;;;;;9.99;63.53;99934.66;4997309;28;45417;-82
2021/12/05 11:31:33;;;;;;;;;7.00;5.33;;;;;9.93;63.88;99918.09;4995548;28;45436;-81
2021/12/05 11:33:59;;;;;;;;;4.00;4.00;;;;;10.05;64.21;99940.50;4996860;28;46122;-82
2021/12/05 11:36:28;;;;;;;;;6.00;5.00;;;;;10.14;63.65;99948.00;4996966;28;45478;-81
2021/12/05 11:38:54;;;;;;;;;7.33;7.33;;;;;10.02;64.00;99929.16;4995256;28;45522;-81
2021/12/05 11:41:23;;;;;;;;;6.00;5.67;;;;;9.90;63.99;99922.69;4997220;28;45568;-81
2021/12/05 11:44:00;;;;;;;;;7.00;5.00;;;;;10.24;63.89;99990.09;4996237;28;46522;-81
2021/12/05 11:46:29;;;;;;;;;7.67;6.33;;;;;10.25;64.00;99998.00;4995436;28;45526;-82
2021/12/05 11:49:08;;;;;;;;;3.00;2.33;;;;;10.12;63.83;99995.16;4997069;28;45527;-82
2021/12/05 11:51:56;;;;;;;;;4.00;4.00;;;;;9.91;64.77;99962.56;4996787;28;45361;-82
2021/12/05 11:54:26;;;;;;;;;1.67;1.67;;;;;10.20;63.82;100010.69;4996336;28;45671;-82
2021/12/05 11:56:54;;;;;;;;;1.33;1.33;;;;;10.17;63.07;100012.69;4996538;28;45354;-82
2021/12/05 11:59:28;;;;;;;;;1.00;1.00;;;;;9.83;62.44;99972.75;4996800;28;45389;-82
2021/12/05 12:02:14;;;;;;;;;1.00;1.00;;;;;10.07;62.91;100015.00;4997465;28;45370;-82
2021/12/05 12:04:48;;;;;;;;;3.00;3.00;;;;;10.06;62.37;100021.25;4992465;28;46209;-82
2021/12/05 12:07:35;;;;;;;;;2.00;2.00;;;;;10.06;63.50;100022.09;4999788;28;45231;-81
2021/12/05 12:10:12;;;;;;;;;2.67;1.67;;;;;10.05;63.75;100009.72;5000401;28;45405;-82
2021/12/05 12:12:41;;;;;;;;;3.33;3.00;;;;;10.08;62.77;100014.03;4999957;28;45345;-82
2021/12/05 12:15:07;;;;;;;;;2.33;2.33;;;;;10.11;63.36;100017.41;4999972;28;46430;-82
2021/12/05 12:17:33;;;;;;;;;5.33;4.00;;;;;9.70;62.98;99945.06;4999673;28;45355;-82
2021/12/05 12:19:58;;;;;;;;;9.00;9.00;;;;;9.47;62.45;99909.03;5000016;28;45468;-82
2021/12/05 12:22:26;;;;;;;;;5.33;4.00;;;;;9.61;61.69;99932.25;4999834;28;45371;-82
2021/12/05 12:24:59;;;;;;;;;4.00;4.00;;;;;9.60;62.53;99949.13;4998513;28;48228;-82
2021/12/05 12:27:25;;;;;;;;;5.33;4.00;;;;;9.89;62.20;99993.72;4999716;28;45401;-82
2021/12/05 12:29:52;;;;;;;;;3.33;3.00;;;;;9.65;62.28;99971.06;4999755;28;45545;-82
2021/12/05 12:32:26;;;;;;;;;4.67;3.00;;;;;9.63;61.35;99962.31;5000252;28;45392;-82
2021/12/05 12:35:11;;;;;;;;;3.33;3.00;;;;;9.97;61.66;100027.91;4999259;28;46022;-82
2021/12/05 12:38:08;;;;;;;;;4.00;4.00;;;;;9.96;61.75;100030.66;4999057;28;45476;-82
2021/12/05 12:40:33;;;;;;;;;5.00;4.00;;;;;9.97;61.79;100035.88;4999492;28;45481;-82
2021/12/05 12:42:58;;;;;;;;;2.00;2.00;;;;;9.82;62.02;100004.78;4999804;28;45242;-82
2021/12/05 12:45:24;;;;;;;;;4.00;3.67;;;;;9.99;61.64;100036.66;4998871;28;58292;-81
2021/12/05 12:47:58;;;;;;;;;7.33;6.33;;;;;9.92;62.22;100028.16;4999209;28;45316;-81
2021/12/05 12:50:36;;;;;;;;;10.33;9.00;;;;;10.05;62.32;100038.16;4999592;28;45570;-82
2021/12/05 12:53:04;;;;;;;;;12.33;9.33;;;;;10.09;62.26;100039.69;4999877;28;45358;-81
2021/12/05 12:55:36;;;;;;;;;6.67;6.67;;;;;9.46;61.99;99921.47;4998980;28;45310;-82
2021/12/05 12:58:06;;;;;;;;;6.00;6.00;;;;;10.24;62.35;100046.88;4999214;28;45496;-82
2021/12/05 13:00:36;;;;;;;;;9.33;9.33;;;;;10.30;62.56;100040.38;4998833;28;45382;-82
2021/12/05 13:03:14;;;;;;;;;6.00;5.67;;;;;10.33;61.44;100050.91;4999514;28;45286;-82
2021/12/05 13:11:05;;;;;;;;;5.67;5.00;;;;;10.31;61.98;100031.47;4999409;28;45416;-82
2021/12/05 13:13:32;;;;;;;;;5.00;5.00;;;;;10.08;61.60;99988.25;4998961;28;45522;-82
2021/12/05 13:16:17;;;;;;;;;8.33;6.33;;;;;10.54;61.78;100059.53;4998801;28;45483;-82
2021/12/05 13:18:47;;;;;;;;;4.33;4.00;;;;;10.35;61.79;100028.56;4998747;28;45358;-82
2021/12/05 13:21:16;;;;;;;;;4.33;4.00;;;;;10.57;61.77;100060.22;4998682;28;45364;-82
2021/12/05 13:23:45;;;;;;;;;3.67;3.67;;;;;10.63;61.67;100063.47;4998918;28;45398;-82
2021/12/05 13:26:11;;;;;;;;;4.33;4.33;;;;;10.65;61.05;100064.25;4998712;28;45485;-82
2021/12/05 13:28:42;;;;;;;;;6.67;6.33;;;;;10.20;61.36;99984.06;4998644;28;45473;-82
2021/12/05 13:31:26;;;;;;;;;5.00;4.00;;;;;10.69;61.30;100063.16;4999075;28;45435;-82
2021/12/05 13:34:29;;;;;;;;;5.33;5.00;;;;;10.72;61.48;100062.97;4998310;28;45558;-82
2021/12/05 13:36:59;;;;;;;;;5.00;5.00;;;;;10.51;61.20;100033.91;5013220;28;47178;-82
2021/12/05 13:39:32;;;;;;;;;8.00;5.67;;;;;10.73;62.04;100062.91;4998732;28;45342;-82
2021/12/05 13:42:04;;;;;;;;;8.67;5.33;;;;;10.54;61.58;100035.56;4998450;28;45417;-82
2021/12/05 13:45:04;;;;;;;;;7.00;6.67;;;;;10.74;62.03;100077.94;5013879;28;45509;-82
2021/12/05 13:47:52;;;;;;;;;8.33;7.00;;;;;10.61;61.61;100044.06;4998125;28;46498;-82
2021/12/05 13:50:18;;;;;;;;;8.33;7.00;;;;;10.80;61.57;100081.22;5013402;28;45528;-82
2021/12/05 13:53:03;;;;;;;;;7.67;7.00;;;;;10.80;62.33;100084.75;4998249;28;45834;-82
2021/12/05 13:55:34;;;;;;;;;4.67;4.67;;;;;10.81;61.71;100073.13;4998671;28;45445;-82
2021/12/05 13:58:24;;;;;;;;;5.33;5.33;;;;;10.80;61.93;100083.91;4998110;28;45992;-82
2021/12/05 14:00:55;;;;;;;;;8.33;7.00;;;;;10.82;62.70;100088.19;4997710;28;45341;-82
2021/12/05 14:03:37;;;;;;;;;8.00;6.33;;;;;10.80;61.63;100086.56;4998165;28;45558;-82
2021/12/05 14:06:03;;;;;;;;;11.00;8.00;;;;;10.60;61.39;100055.66;4998631;28;45452;-82
2021/12/05 14:08:30;;;;;;;;;10.67;10.00;;;;;10.46;62.05;100037.75;4997815;28;45423;-82
2021/12/05 14:10:55;;;;;;;;;10.00;7.00;;;;;10.71;62.15;100080.78;4998288;28;45326;-82
2021/12/05 14:13:21;;;;;;;;;5.67;5.33;;;;;10.26;61.81;100009.53;4997993;28;45524;-82
2021/12/05 14:15:56;;;;;;;;;9.00;7.00;;;;;10.75;61.88;100093.00;4998356;28;45857;-82
2021/12/05 14:18:22;;;;;;;;;9.33;7.00;;;;;10.54;62.08;100056.88;4997854;28;46510;-82
2021/12/05 14:20:48;;;;;;;;;4.00;4.00;;;;;10.80;61.55;100094.56;4997709;28;45356;-82
2021/12/05 14:23:20;;;;;;;;;6.67;6.67;;;;;10.23;61.39;100005.22;4997848;28;45329;-82
2021/12/05 14:25:47;;;;;;;;;5.33;5.33;;;;;10.40;62.25;100036.31;4997433;28;45452;-82
2021/12/05 14:28:13;;;;;;;;;7.33;6.00;;;;;10.77;61.56;100100.91;4997925;28;45899;-82
2021/12/05 14:30:38;;;;;;;;;9.33;9.33;;;;;10.77;61.49;100103.59;4997522;28;45586;-82
2021/12/05 14:33:05;;;;;;;;;6.00;6.00;;;;;10.60;62.27;100092.97;4997861;28;45452;-82
2021/12/05 14:35:34;;;;;;;;;5.67;5.67;;;;;10.77;61.38;100106.25;4998246;28;45492;-82
2021/12/05 14:38:02;;;;;;;;;5.67;4.67;;;;;10.62;61.51;100091.94;4997398;28;46118;-82
2021/12/05 14:40:32;;;;;;;;;4.00;4.00;;;;;10.40;62.13;100057.63;4997654;28;45456;-82
2021/12/05 14:43:11;;;;;;;;;6.67;6.67;;;;;10.54;61.57;100084.38;4997637;28;45389;-82
2021/12/05 14:45:41;;;;;;;;;6.67;6.00;;;;;10.43;62.02;100072.56;4997935;28;45483;-82
2021/12/05 14:48:09;;;;;;;;;6.00;6.00;;;;;10.80;62.10;100138.06;4996983;28;46184;-82
2021/12/05 14:50:38;;;;;;;;;8.00;8.00;;;;;10.74;61.59;100130.38;4995557;28;45522;-82
2021/12/05 14:53:06;;;;;;;;;13.33;13.33;;;;;10.50;61.90;100092.59;4997682;28;45584;-82
2021/12/05 14:55:34;;;;;;;;;10.00;9.67;;;;;10.71;61.80;100128.75;4997841;28;45423;-82
2021/12/05 14:58:05;;;;;;;;;10.00;8.00;;;;;10.82;61.95;100151.31;4997442;28;45478;-82
2021/12/05 15:00:40;;;;;;;;;9.67;8.00;;;;;10.35;62.32;100075.66;4996795;28;45405;-82
2021/12/05 15:03:13;;;;;;;;;8.33;6.67;;;;;10.56;62.19;100114.47;4997468;28;45570;-82
2021/12/05 15:05:43;;;;;;;;;8.67;7.33;;;;;10.85;61.83;100156.47;4997795;28;45366;-82
2021/12/05 15:08:11;;;;;;;;;9.67;8.33;;;;;10.85;62.15;100162.66;5012491;28;46025;-82
2021/12/05 15:10:38;;;;;;;;;5.67;4.67;;;;;10.85;61.79;100176.00;4997023;28;45478;-82
2021/12/05 15:13:03;;;;;;;;;10.33;9.00;;;;;10.87;61.66;100167.91;4997557;28;45672;-82
2021/12/05 15:15:29;;;;;;;;;10.00;9.00;;;;;10.59;62.25;100129.41;4997220;28;45592;-82
2021/12/05 15:17:57;;;;;;;;;9.67;8.67;;;;;10.90;61.91;100173.06;4997175;28;45659;-82
2021/12/05 15:20:27;;;;;;;;;9.33;8.00;;;;;10.89;61.60;100179.38;4997448;28;45501;-82
2021/12/05 15:22:59;;;;;;;;;9.67;9.67;;;;;10.88;61.84;100181.16;4997400;28;45441;-82
2021/12/05 15:25:29;;;;;;;;;10.67;10.67;;;;;10.87;61.47;100192.78;4997679;28;45477;-82
2021/12/05 15:27:56;;;;;;;;;8.33;8.33;;;;;10.85;61.54;100193.78;4997140;28;45587;-82
2021/12/05 15:30:34;;;;;;;;;8.00;7.33;;;;;10.62;62.19;100179.88;4997050;28;45341;-82
2021/12/05 15:33:20;;;;;;;;;4.00;4.00;;;;;10.73;62.39;100214.81;4997301;28;45463;-82
2021/12/05 15:35:48;;;;;;;;;6.33;6.33;;;;;10.78;62.65;100223.44;4997256;28;45499;-82
2021/12/05 15:38:21;;;;;;;;;11.00;7.00;;;;;10.80;62.47;100227.84;4996943;28;45496;-82
2021/12/05 15:40:48;;;;;;;;;6.00;6.00;;;;;10.80;62.78;100225.19;4997143;28;45404;-82
2021/12/05 15:43:17;;;;;;;;;8.33;7.33;;;;;10.81;62.39;100226.88;4996930;28;45603;-82
2021/12/05 15:45:45;;;;;;;;;8.33;7.00;;;;;10.78;62.85;100238.56;4996838;28;45387;-82
2021/12/05 15:48:10;;;;;;;;;14.00;14.00;;;;;10.54;62.35;100200.75;4996628;28;46143;-82
2021/12/05 15:50:39;;;;;;;;;17.33;17.00;;;;;10.73;62.46;100244.16;4996744;28;45363;-82
2021/12/05 15:53:10;;;;;;;;;17.67;17.00;;;;;10.66;62.27;100245.41;4997209;28;45354;-82
2021/12/05 15:55:43;;;;;;;;;14.33;13.67;;;;;10.63;62.51;100261.56;4997196;28;45561;-82
2021/12/05 15:58:39;;;;;;;;;15.33;15.33;;;;;10.66;62.53;100277.41;4996772;28;46666;-82
2021/12/05 16:01:06;;;;;;;;;11.00;11.00;;;;;10.68;62.41;100274.66;4995747;28;45342;-82
2021/12/05 16:03:38;;;;;;;;;9.00;9.00;;;;;10.51;62.61;100255.06;4996798;28;45453;-82
2021/12/05 16:06:04;;;;;;;;;8.33;7.00;;;;;10.67;62.60;100287.09;4996994;28;45359;-82
2021/12/05 16:08:32;;;;;;;;;6.33;6.00;;;;;10.49;61.88;100266.75;4995182;28;48047;-82
2021/12/05 16:10:59;;;;;;;;;8.00;8.00;;;;;10.66;62.48;100296.03;4997024;28;45465;-82
2021/12/05 16:13:38;;;;;;;;;6.00;6.00;;;;;10.64;61.89;100308.59;4996574;28;45511;-82
2021/12/05 16:16:11;;;;;;;;;7.67;7.00;;;;;10.21;62.32;100241.47;4997024;28;45524;-82
2021/12/05 16:18:41;;;;;;;;;8.67;8.00;;;;;10.64;62.37;100315.72;5011520;28;47449;-82
2021/12/05 16:21:26;;;;;;;;;7.00;7.00;;;;;10.43;62.70;100286.56;4996513;28;45580;-82
2021/12/05 16:23:52;;;;;;;;;9.67;6.67;;;;;10.67;62.48;100327.06;4996797;28;45491;-82
2021/12/05 16:26:26;;;;;;;;;8.33;7.00;;;;;10.66;62.75;100319.19;4996797;28;45420;-82
2021/12/05 16:28:59;;;;;;;;;11.67;9.00;;;;;10.55;62.48;100304.56;4996018;28;46727;-82
2021/12/05 16:31:55;;;;;;;;;8.00;7.00;;;;;10.67;62.71;100329.75;4996347;28;45502;-82
2021/12/05 16:34:24;;;;;;;;;8.67;7.67;;;;;10.69;62.31;100324.34;4996835;28;45310;-82
2021/12/05 16:36:59;;;;;;;;;10.67;10.67;;;;;10.69;62.43;100337.66;4996379;28;45409;-82
2021/12/05 16:39:27;;;;;;;;;13.00;13.00;;;;;10.72;62.63;100342.84;4996064;28;45400;-82
2021/12/05 16:41:56;;;;;;;;;9.67;8.33;;;;;10.72;62.22;100343.72;4996512;28;45398;-82
2021/12/05 16:44:29;;;;;;;;;6.33;5.33;;;;;10.71;62.24;100349.97;4995972;28;45413;-82
2021/12/05 16:46:58;;;;;;;;;9.00;9.00;;;;;10.70;61.89;100355.38;4996853;28;45434;-82
2021/12/05 16:49:28;;;;;;;;;10.33;9.67;;;;;10.70;62.37;100355.38;4999090;28;45488;-82
2021/12/05 16:51:56;;;;;;;;;9.00;8.00;;;;;10.53;62.15;100332.25;4999579;28;45376;-82
2021/12/05 16:54:52;;;;;;;;;10.67;10.00;;;;;10.70;62.63;100358.03;4999772;28;45428;-81
2021/12/05 16:57:21;;;;;;;;;10.67;7.67;;;;;10.71;62.16;100365.97;4999401;28;45397;-82
2021/12/05 16:59:49;;;;;;;;;11.00;11.00;;;;;10.57;62.56;100341.81;4999048;28;46057;-82
2021/12/05 17:02:27;;;;;;;;;12.00;10.00;;;;;10.39;62.15;100318.75;4999016;28;45385;-82
2021/12/05 17:05:03;;;;;;;;;19.33;16.00;;;;;10.72;62.07;100369.50;4999598;28;45446;-82
2021/12/05 17:07:38;;;;;;;;;12.33;10.33;;;;;10.73;61.69;100376.56;4999578;28;45395;-82
2021/12/05 17:10:29;;;;;;;;;10.00;9.00;;;;;10.72;62.21;100383.72;4999333;28;46027;-82
2021/12/05 17:13:08;;;;;;;;;11.67;10.33;;;;;10.36;61.95;100322.44;4998891;28;45366;-82
2021/12/05 17:15:36;;;;;;;;;12.33;12.33;;;;;10.73;61.66;100389.91;4999010;28;45496;-82
2021/12/05 17:18:12;;;;;;;;;15.00;10.33;;;;;10.72;62.26;100393.47;4999669;28;45334;-82
2021/12/05 17:20:58;;;;;;;;;12.67;12.00;;;;;10.70;61.62;100393.56;4998800;28;46831;-81
2021/12/05 17:23:38;;;;;;;;;11.00;11.00;;;;;10.57;61.83;100374.66;4999196;28;45298;-82
2021/12/05 17:26:29;;;;;;;;;10.33;9.67;;;;;10.69;61.56;100394.50;4998986;28;45414;-82
2021/12/05 17:28:55;;;;;;;;;10.67;9.33;;;;;10.71;62.13;100394.44;4994483;28;45496;-82
2021/12/05 17:31:30;;;;;;;;;13.00;8.00;;;;;10.71;61.94;100400.63;4998968;28;45620;-82
2021/12/05 17:34:01;;;;;;;;;10.00;9.33;;;;;10.74;62.03;100403.13;4999186;28;45438;-82
2021/12/05 17:36:42;;;;;;;;;8.00;8.00;;;;;10.72;62.30;100407.69;4998996;28;45346;-82
2021/12/05 17:39:17;;;;;;;;;13.67;12.00;;;;;10.25;61.77;100332.72;4999375;28;45365;-82
2021/12/05 17:41:45;;;;;;;;;14.33;13.00;;;;;10.75;62.32;100423.53;4998420;28;46408;-82
2021/12/05 17:44:15;;;;;;;;;17.00;15.67;;;;;10.69;62.11;100415.81;4998657;28;45381;-82
2021/12/05 17:46:42;;;;;;;;;13.33;13.33;;;;;10.35;61.72;100353.56;4998798;28;45439;-82
2021/12/05 17:49:10;;;;;;;;;16.67;14.67;;;;;9.96;61.28;100286.22;4999067;28;45549;-82
2021/12/05 17:51:39;;;;;;;;;22.33;18.00;;;;;10.74;61.88;100429.78;4998451;28;46885;-82
2021/12/05 17:54:06;;;;;;;;;22.67;21.00;;;;;10.74;62.05;100423.59;4998821;28;45366;-82
2021/12/05 17:56:50;;;;;;;;;20.67;19.00;;;;;10.71;61.65;100413.94;4998139;28;45555;-90
2021/12/05 18:04:31;;;;;;;;;15.67;15.67;;;;;10.70;61.93;100432.66;4998638;28;45420;-90
2021/12/05 18:06:57;;;;;;;;;16.33;15.00;;;;;10.16;61.68;100344.72;4999193;28;45387;-89
2021/12/05 18:09:23;;;;;;;;;14.67;13.67;;;;;10.24;61.92;100360.31;4999094;28;45502;-90
2021/12/05 18:11:50;;;;;;;;;15.00;12.67;;;;;10.41;61.98;100386.16;4998722;28;46303;-90
2021/12/05 18:14:16;;;;;;;;;12.67;12.67;;;;;10.62;62.01;100425.06;4997712;28;45367;-90
2021/12/05 18:16:42;;;;;;;;;17.00;13.00;;;;;10.70;62.25;100438.00;4998830;28;45552;-90
2021/12/05 18:19:14;;;;;;;;;16.00;16.00;;;;;10.50;62.54;100407.00;4999369;28;45584;-90
2021/12/05 18:21:42;;;;;;;;;18.00;15.67;;;;;10.56;62.64;100420.91;4999074;28;46253;-90
2021/12/05 18:24:11;;;;;;;;;19.67;17.67;;;;;10.43;62.45;100405.59;4998708;28;45338;-90
2021/12/05 18:26:38;;;;;;;;;16.00;16.00;;;;;10.72;62.43;100462.78;4997365;28;45292;-90
2021/12/05 18:29:06;;;;;;;;;19.33;19.33;;;;;10.41;62.82;100408.31;4997700;28;45506;-90
2021/12/05 18:31:34;;;;;;;;;20.33;14.67;;;;;10.72;62.59;100458.34;4998331;28;45567;-90
2021/12/05 18:34:15;;;;;;;;;18.33;17.33;;;;;10.71;62.48;100464.59;4998638;28;45501;-90
2021/12/05 18:36:42;;;;;;;;;16.33;16.33;;;;;10.74;62.63;100464.44;4997049;28;45221;-90
2021/12/05 18:39:11;;;;;;;;;17.00;17.00;;;;;10.32;62.33;100411.41;4998866;28;45417;-90
2021/12/05 18:41:38;;;;;;;;;17.67;16.67;;;;;10.18;62.55;100374.75;4998080;28;45529;-89
2021/12/05 18:44:10;;;;;;;;;22.33;20.00;;;;;10.10;62.57;100360.97;4997001;28;45351;-90
2021/12/05 18:46:36;;;;;;;;;25.33;22.67;;;;;9.99;62.69;100352.63;4996791;28;45391;-90
2021/12/05 18:49:01;;;;;;;;;16.33;16.33;;;;;10.75;62.60;100484.84;5005751;28;45458;-88
2021/12/05 18:51:27;;;;;;;;;13.33;11.00;;;;;10.44;62.95;100433.94;4998760;28;45477;-88
2021/12/05 18:53:52;;;;;;;;;16.00;15.67;;;;;10.04;62.85;100369.25;5011834;28;45694;-90
2021/12/05 18:56:18;;;;;;;;;23.00;19.67;;;;;10.74;63.19;100480.44;4996223;28;45366;-84
2021/12/05 18:58:44;;;;;;;;;23.33;21.33;;;;;10.23;62.52;100398.50;4995303;28;45473;-85
2021/12/05 19:07:13;;;;;;;;;17.00;17.00;;;;;10.73;62.80;100483.19;4995479;28;45858;-83
2021/12/05 19:12:08;;;;;;;;;16.67;16.00;;;;;10.40;63.52;100445.72;4987357;28;46045;-86
2021/12/05 19:14:40;;;;;;;;;19.00;17.67;;;;;9.73;63.32;100333.41;4978861;28;45558;-83
2021/12/05 19:17:10;;;;;;;;;16.00;16.00;;;;;10.69;63.29;100495.78;4985519;28;45774;-83
2021/12/05 19:19:40;;;;;;;;;13.33;13.33;;;;;10.24;62.98;100426.88;4993467;28;45442;-83
2021/12/05 19:25:34;;;;;;;;;17.67;16.33;;;;;10.66;63.37;100503.09;4988080;28;45583;-85
2021/12/05 19:28:00;;;;;;;;;12.33;12.33;;;;;10.41;63.31;100458.09;4985943;28;45729;-84
2021/12/05 19:30:50;;;;;;;;;17.67;16.00;;;;;10.66;63.43;100503.94;4995981;28;45638;-83
2021/12/05 19:33:18;;;;;;;;;17.33;15.33;;;;;10.35;63.61;100464.56;4980949;28;45530;-85
2021/12/05 19:35:44;;;;;;;;;16.67;16.00;;;;;10.20;63.09;100447.47;4983677;28;46225;-91
2021/12/05 19:38:11;;;;;;;;;19.33;16.67;;;;;10.14;63.16;100429.13;4987825;28;45517;-88
2021/12/05 19:40:39;;;;;;;;;20.00;15.00;;;;;10.55;63.38;100500.91;4972085;28;45525;-90
2021/12/05 19:43:06;;;;;;;;;14.33;13.67;;;;;10.73;63.16;100531.16;4984841;28;48400;-88
2021/12/05 19:45:34;;;;;;;;;12.00;12.00;;;;;10.37;63.42;100473.34;4987309;28;45593;-92
2021/12/05 19:48:00;;;;;;;;;12.00;10.00;;;;;10.63;62.46;100520.09;4994507;28;45426;-90
2021/12/05 19:50:30;;;;;;;;;11.67;10.00;;;;;10.74;62.74;100539.06;4991483;28;45529;-89
2021/12/05 19:52:56;;;;;;;;;11.67;9.33;;;;;10.73;63.15;100541.84;4988224;28;46511;-88
2021/12/05 19:55:23;;;;;;;;;9.33;9.33;;;;;10.13;62.51;100438.03;5000143;28;45528;-90
2021/12/05 19:57:49;;;;;;;;;14.00;14.00;;;;;10.49;62.71;100499.41;4995793;28;45424;-95
2021/12/05 20:00:17;;;;;;;;;12.00;10.67;;;;;10.21;62.95;100457.19;5012099;28;45560;-88
2021/12/05 20:02:45;;;;;;;;;13.33;10.67;;;;;10.20;62.69;100447.47;4986216;28;47044;-90
2021/12/05 20:05:13;;;;;;;;;14.00;14.00;;;;;9.57;62.66;100348.38;5010582;28;45652;-92
2021/12/05 20:07:40;;;;;;;;;9.00;9.00;;;;;9.68;62.38;100375.34;5018391;28;45390;-92
2021/12/05 20:10:09;;;;;;;;;9.33;9.33;;;;;10.34;62.61;100493.00;4984224;28;45359;-86
2021/12/05 20:12:35;;;;;;;;;10.33;9.33;;;;;9.85;62.60;100415.34;4989856;28;48309;-89
2021/12/05 20:15:01;;;;;;;;;9.00;8.00;;;;;10.66;62.64;100545.72;4980250;28;45409;-86